OIMC 
Sarakhs Airport
Sarakhs, Iran 
ICAOIATAStatus
OIMCCKTOperational
LatitudeLongitude
36° 30' 4" N61° 3' 53" E
36.50120261.064899
Local Time (DST+5)UTC (GMT+4)
04-18-2014 08:12 pm04-18-2014 15:42
Sunrise-SunsetLocalUTC
Begin Civil Twilight05:19 am00:49
Sunrise05:46 am01:16
Sunset07:03 pm14:33
End Civil Twilight07:30 pm15:00

Current Weather

METARObservedFlight Conditions

OIMC 181400Z 00000KT CAVOK 26/M08 Q1017

Fri, Apr 18, 2014 @ 14:00 UTC(Z)

(1 Hour, 42 Minutes ago)

VFR

(Visual Flight Rules)

WindVisibilityCloudsConditions
Calm
10 km or more
  • Clear skies
  • No significant weather
TemperaturesReadingsPrecipitation
Current Temp26°C (79°F)
Dewpoint-8°C (18°F)
Humidity10%
Altimeter30.03"Hg
Sea Level Pressure1017mb
Field Elevation944.88'
None Recorded

Additional weather within a 185.2km radius of OIMC

Location METAR
OIMM

130.8km W (257°)

42 minutes ago
UTAM

144.5km N (030°)

42 minutes ago
VFR VFR    MVFR MVFR    IFR IFR    LIFR LIFR    Unknown Unknown

Previous 24 hour Weather Graphs

  Loading...

CheckWX.com is intended as a tool to help pilots better visualize weather data.   It is not intended as a substitute for an official weather briefing obtained from a Flight Service Station.
CheckWX.com does not meet the FAA requirements for an official pre-flight weather briefing.   Therefore, it's important that pilots still call and obtain an official FSS pre-flight weather briefing.